Terminal Aerodrome Forecast
Issued by NWS

Home | Current Version | Previous Version | Text Only | Print | Product List | Glossary On
Versions: 1 2 3 4 5 6 7 8 9 10 11 12 13 14
000
FTUS43 KOAX 250500
TAFSNY
TAF
KSNY 250536Z 2506/2606 24009KT P6SM SCT120
     FM251600 22012KT P6SM BKN200
     FM260200 14012KT P6SM OVC200=

USA.gov is the U.S. government's official web portal to all federal, state and local government web resources and services.